Station info - map view · info · telemetry · weather · raw · status · beacons · messages · bulletins · browse · moving · my account
Callsign, ship name or locator: Clear       
It is possible to search using wildcards (*?) after a prefix. Example: OH*
APRS station KA8ZKR-9 - show graphs
Map loading...
Comment: I MONITOR_147.165
Mic-E message: In service
Location: 39°44.08' N 84°05.62' W - locator EM79WR86SH - show map - static map
4.3 miles East bearing 81° from Oakwood, Montgomery County, Ohio, United States [?]
5.1 miles Northeast bearing 52° from Kettering, Montgomery County, Ohio, United States
44.0 miles Northeast bearing 26° from Cincinnati, Hamilton County, Ohio, United States
60.1 miles West bearing 255° from Columbus, Franklin County, Ohio, United States
Last position: 2018-10-22 17:07:27 EDT (10h27m ago)
2018-10-22 17:07:27 EDT local time at Oakwood, United States [?]
Altitude: 837 ft
Course: 256°
Speed: 39 MPH
Device: Kenwood: TM-D710 (rig)
Last path: KA8ZKR-9>S9TT0X via qAR,KE0JMK-2
Positions stored: 996
Other SSIDs: KA8ZKR KA8ZKR-1 KA8ZKR-2
APRS digipeater – Statistics for 2018-10:
Stations heard directly: 10 on radio path – show map
Last heard a station directly: 2018-10-14 11:42:49 EDT (8d 15h52m ago)
Position packets heard directly: 67 on radio path
Stations near current position of KA8ZKR-9 - show more
callsign distance last heard - EDT      callsign distance last heard - EDT
EW60181.6 miles 39°2018-10-23 03:33:17 KD8VIG B2.4 miles 137°2018-10-23 03:34:23
KD8VIG-B2.4 miles 137°2018-10-23 03:34:33 ND3N-92.7 miles 9°2018-10-15 08:31:11
KE0JMK-22.8 miles 239°2018-10-23 03:24:34 KE0JMK-92.8 miles 239°2018-10-22 17:12:22
W8JRW B3.0 miles 121°2018-10-23 03:32:48 W8JRW-B3.0 miles 121°2018-10-23 03:32:58
W8LRJ-93.1 miles 161°2018-10-21 13:41:37 N8ADO-103.1 miles 165°2018-10-14 12:51:11
KD8PZV-83.3 miles 127°2018-10-22 16:17:06 W8JRW3.3 miles 121°2018-10-23 03:27:39
N8NPT-93.8 miles 117°2018-10-03 15:36:34 DW11143.9 miles 225°2018-10-23 03:30:06
W8GCA-104.1 miles 137°2018-10-23 03:24:06 EW29444.2 miles 217°2018-10-14 16:54:02
NN1I4.3 miles 257°2018-10-13 11:53:58 WB8AM-54.4 miles 128°2018-10-22 20:47:27
W8BI-94.4 miles 271°2018-10-16 19:51:30 WB8AM4.6 miles 132°2018-10-21 21:41:58
Stations which heard KA8ZKR-9 directly on radio –
callsign pkts first heard - EDT last heard longest (tx => rx) longest at - EDT
KA0AZS 10 2018-10-14 08:15:30 2018-10-14 12:06:51 EM79VR > EM79VQ 4.4 miles 194° 2018-10-14 12:06:51
WA8ZWJ-1 4 2018-10-08 09:26:11 2018-10-12 16:12:21 EM79WS > EM79TV 17.1 miles 310° 2018-10-12 16:12:21
W8BLV 10 2018-10-14 08:16:29 2018-10-14 12:06:44 EM79VR > EM79TM 18.2 miles 208° 2018-10-14 12:06:44
KI6SZ-2 48 2018-10-04 07:17:03 2018-10-19 16:10:59 EM79VR > EM79WT 8.9 miles 45° 2018-10-14 08:12:29
N8NQH-1 13 2018-10-04 07:12:02 2018-10-15 16:42:50 EM79XR > EM79XP 4.9 miles 180° 2018-10-15 16:26:10
KN8JOY-9 1 2018-10-14 12:05:53 2018-10-14 12:05:53 EM79VR > EM79VQ 4.2 miles 197° 2018-10-14 12:05:53
W8VFR-3 17 2018-10-14 08:05:26 2018-10-14 12:14:45 EM79WR > EM79TP 15.0 miles 240° 2018-10-14 08:05:26
W8VFR-4 10 2018-10-14 08:08:26 2018-10-14 12:12:45 EM79WS > EM79TR 12.9 miles 268° 2018-10-14 12:12:45
N8ADO-10 15 2018-10-14 08:08:27 2018-10-14 12:05:44 EM79WS > EM79VR 2.2 miles 237° 2018-10-14 08:08:27
KD8LXB-10 3 2018-10-14 08:07:26 2018-10-14 12:12:44 EM79WS > EM79QR 23.3 miles 270° 2018-10-14 08:07:26
W8VFR-8 1 2018-10-08 09:19:08 2018-10-08 09:19:08 EM79WS > EM79QW 27.6 miles 295° 2018-10-08 09:19:08
KD8QFM-3 7 2018-10-08 09:30:12 2018-10-08 09:47:49 EM79VU > EM79VV 2.1 miles 348° 2018-10-08 09:30:12
KE0JMK-9 1 2018-10-08 09:31:12 2018-10-08 09:31:12 EM79VV > EM79VR 10.9 miles 176° 2018-10-08 09:31:12
KE0JMK-2 35 2018-10-04 07:16:02 2018-10-22 17:07:27 EM79VV > EM79WR 13.1 miles 166° 2018-10-08 09:43:47

Only position packets which were originated by the station are shown here. The range statistics show some extra long hops, because some digipeaters do not correctly add themselves to the digipeater path. Please check the raw packets.
Stations heard directly by KA8ZKR-9
callsign pkts first heard - EDT last heard longest (rx => tx) longest at - EDT
KM8EMA 2 2018-10-14 09:33:08 2018-10-14 11:33:12 EM79VS > EM79VR 0.7 miles 325° 2018-10-14 11:33:12
N7IV-1 3 2018-10-14 10:56:42 2018-10-14 11:04:47 EM79VP > EM79VR 5.9 miles 175° 2018-10-14 10:56:42
KA0AZS-9 2 2018-10-14 11:14:50 2018-10-14 11:17:36 EM79VQ > EM79VR 5.2 miles 195° 2018-10-14 11:17:36
KN8JOY-9 6 2018-10-14 10:00:43 2018-10-14 12:04:56 EM79VQ > EM79VR 4.2 miles 196° 2018-10-14 12:04:56
W8VFR-5 1 2018-10-14 09:36:20 2018-10-14 09:36:20 EM79OM > EM79VR 33.9 miles 243° 2018-10-14 09:36:20
KC8OKU-9 15 2018-10-14 08:56:26 2018-10-14 11:10:41 EM79VS > EM79VR 2.3 miles 355° 2018-10-14 11:10:41
N8ADO-10 3 2018-10-14 08:41:54 2018-10-14 11:41:56 EM79VR > EM79VR 0.6 miles 207° 2018-10-14 11:41:56
WX8P-1 6 2018-10-14 08:47:04 2018-10-14 11:18:02 EM79XQ > EM79VR 9.9 miles 118° 2018-10-14 11:18:02
WG8B 28 2018-10-14 08:53:27 2018-10-14 12:03:54 EM79VS > EM79VR 3.2 miles 350° 2018-10-14 10:39:10
KD8PZV-8 1 2018-10-10 16:19:43 2018-10-10 16:19:43 EM79XQ > EM79WR 3.2 miles 129° 2018-10-10 16:19:43

Only stations from which a position packet has been heard are shown here. The range statistics show some extra long hops, because some digipeaters do not correctly add themselves to the digipeater path. Please check the raw packets.
About this site
This page shows real-time information collected from the Automatic Position Reporting System Internet network (APRS-IS). APRS is used by amateur (ham) radio operators to transmit real-time position information, weather data, telemetry and messages over the radio. A vehicle equipped with a GPS receiver, a VHF transmitter or HF transceiver and a small computer device called a tracker transmits it's location, speed and course in a small data packet, which is then received by a nearby iGate receiving site which forwards the packet on the Internet. Systems connected to the Internet can send information on the APRS-IS without a radio transmitter, or collect and display information transmitted anywhere in the world.
FAQ · Blog · Discussion group · Linking to aprs.fi · AIS sites · Service status · Database statistics · Advertising on aprs.fi · Technical details · API · Change log · Planned changes · Credits and thanks · Terms Of Service · iPhone/iPad APRS